Time;durP1;ratioP1;P1;durP2;ratioP2;P2;SDS_P1;SDS_P2;PMS_P1;PMS_P2;Temp;Humidity;BMP_temperature;BMP_pressure;BME280_temperature;BME280_humidity;BME280_pressure;Samples;Min_cycle;Max_cycle;Signal;HPM_P1;HPM_P2
2024/02/13 00:02:50;;;;;;;19.83;8.70;;;;;;;;;;5016396;28;20397;-52
2024/02/13 00:05:36;;;;;;;19.65;8.68;;;;;;;;;;5014905;28;20057;-55
2024/02/13 00:08:30;;;;;;;17.38;8.50;;;;;;;;;;5008034;28;20060;-61
2024/02/13 00:11:18;;;;;;;18.45;8.45;;;;;;;;;;5016433;28;20706;-62
2024/02/13 00:14:11;;;;;;;17.90;9.07;;;;;;;;;;5014541;28;20123;-63
2024/02/13 00:16:58;;;;;;;20.23;8.75;;;;;;;;;;5017238;28;20194;-63
2024/02/13 00:19:32;;;;;;;18.30;8.88;;;;;;;;;;5014557;28;20100;-63
2024/02/13 00:22:20;;;;;;;21.52;8.95;;;;;;;;;;5013508;28;20429;-63
2024/02/13 00:25:15;;;;;;;21.05;8.98;;;;;;;;;;5013608;28;20114;-65
2024/02/13 00:28:01;;;;;;;20.83;9.40;;;;;;;;;;5014093;28;20068;-58
2024/02/13 00:30:56;;;;;;;19.25;8.80;;;;;;;;;;5017175;28;20041;-59
2024/02/13 00:33:43;;;;;;;21.70;9.43;;;;;;;;;;5013781;28;20057;-57
2024/02/13 00:36:36;;;;;;;22.98;9.02;;;;;;;;;;5016781;28;20072;-50
2024/02/13 00:39:24;;;;;;;19.98;9.07;;;;;;;;;;5006902;28;20053;-57
2024/02/13 00:42:17;;;;;;;18.30;9.43;;;;;;;;;;5015888;28;20061;-59
2024/02/13 00:45:07;;;;;;;22.98;10.55;;;;;;;;;;5012784;28;20054;-58
2024/02/13 00:48:05;;;;;;;20.63;9.77;;;;;;;;;;5013998;28;20847;-60
2024/02/13 00:50:59;;;;;;;22.08;8.80;;;;;;;;;;4997135;28;20060;-56
2024/02/13 00:53:53;;;;;;;18.27;9.40;;;;;;;;;;4995254;28;20083;-57
2024/02/13 00:56:47;;;;;;;19.25;9.27;;;;;;;;;;4994617;28;20045;-61
2024/02/13 00:59:40;;;;;;;19.42;8.88;;;;;;;;;;4992690;28;20112;-61
2024/02/13 01:02:27;;;;;;;18.33;8.50;;;;;;;;;;4996711;28;20104;-61
2024/02/13 01:05:21;;;;;;;17.13;8.38;;;;;;;;;;4997366;28;20056;-49
2024/02/13 01:08:10;;;;;;;17.05;7.60;;;;;;;;;;5001028;28;20474;-54
2024/02/13 01:11:03;;;;;;;20.83;8.60;;;;;;;;;;4994066;28;20081;-55
2024/02/13 01:13:51;;;;;;;19.70;8.80;;;;;;;;;;4984746;28;20050;-55
2024/02/13 01:16:45;;;;;;;19.55;8.23;;;;;;;;;;4992668;28;20053;-56
2024/02/13 01:19:39;;;;;;;18.75;8.13;;;;;;;;;;4994783;28;20053;-54
2024/02/13 01:22:26;;;;;;;16.00;8.02;;;;;;;;;;4996158;28;20060;-54
2024/02/13 01:25:20;;;;;;;19.90;8.43;;;;;;;;;;4988866;28;20045;-50
2024/02/13 01:28:14;;;;;;;20.08;8.68;;;;;;;;;;4990544;28;20058;-53
2024/02/13 01:31:08;;;;;;;16.08;8.18;;;;;;;;;;4990114;28;20104;-55
2024/02/13 01:33:55;;;;;;;19.52;8.95;;;;;;;;;;4994099;28;20049;-54
2024/02/13 01:36:49;;;;;;;17.17;7.70;;;;;;;;;;4992266;28;20050;-60
2024/02/13 01:39:49;;;;;;;17.88;8.15;;;;;;;;;;4994749;28;20062;-59
2024/02/13 01:42:40;;;;;;;16.77;8.02;;;;;;;;;;4993123;28;20580;-60
2024/02/13 01:45:34;;;;;;;19.00;8.80;;;;;;;;;;4997204;28;20470;-60
2024/02/13 01:48:22;;;;;;;18.48;8.73;;;;;;;;;;4997833;28;20121;-61
2024/02/13 01:51:23;;;;;;;16.40;8.23;;;;;;;;;;5018694;28;20152;-51
2024/02/13 01:54:12;;;;;;;17.98;8.30;;;;;;;;;;5021386;28;20054;-50
2024/02/13 01:57:06;;;;;;;17.35;7.93;;;;;;;;;;5017373;28;20147;-49
2024/02/13 01:59:53;;;;;;;20.83;8.77;;;;;;;;;;5019088;28;20142;-48
2024/02/13 02:02:47;;;;;;;19.35;8.25;;;;;;;;;;5019979;28;20065;-56
2024/02/13 02:05:35;;;;;;;13.70;6.90;;;;;;;;;;5018552;28;20516;-49
2024/02/13 02:08:29;;;;;;;18.05;8.32;;;;;;;;;;5019167;28;20426;-52
2024/02/13 02:11:16;;;;;;;20.80;8.35;;;;;;;;;;5015187;28;20196;-50
2024/02/13 02:14:10;;;;;;;21.08;9.07;;;;;;;;;;5019116;28;20045;-49
2024/02/13 02:17:08;;;;;;;17.00;7.55;;;;;;;;;;5016058;28;20100;-50
2024/02/13 02:20:00;;;;;;;21.25;9.05;;;;;;;;;;5020790;28;20111;-62
2024/02/13 02:22:47;;;;;;;17.45;8.60;;;;;;;;;;5017579;28;20064;-61
2024/02/13 02:25:41;;;;;;;16.77;7.90;;;;;;;;;;5021813;28;20064;-61
2024/02/13 02:28:28;;;;;;;18.40;8.60;;;;;;;;;;5019553;28;21311;-61
2024/02/13 02:31:22;;;;;;;18.02;8.38;;;;;;;;;;5014375;28;20104;-64
2024/02/13 02:34:10;;;;;;;18.63;8.80;;;;;;;;;;5014145;28;20066;-61
2024/02/13 02:37:04;;;;;;;22.13;9.10;;;;;;;;;;5018190;28;20053;-61
2024/02/13 02:39:50;;;;;;;22.75;9.10;;;;;;;;;;5016258;28;20054;-61
2024/02/13 02:42:45;;;;;;;19.45;8.35;;;;;;;;;;5016752;28;20559;-62
2024/02/13 02:45:39;;;;;;;21.85;9.18;;;;;;;;;;5015009;28;20575;-61
2024/02/13 02:48:33;;;;;;;19.60;8.57;;;;;;;;;;5016180;28;20115;-52
2024/02/13 02:51:33;;;;;;;18.65;8.30;;;;;;;;;;5013475;28;20555;-52
2024/02/13 02:54:27;;;;;;;18.00;8.32;;;;;;;;;;5018117;28;20765;-49
2024/02/13 02:57:14;;;;;;;19.65;8.38;;;;;;;;;;5018885;28;20454;-48
2024/02/13 03:00:12;;;;;;;18.90;8.18;;;;;;;;;;5016023;28;20467;-51
2024/02/13 03:02:59;;;;;;;18.48;8.45;;;;;;;;;;5018326;28;20041;-59
2024/02/13 03:05:53;;;;;;;24.85;9.27;;;;;;;;;;5018125;28;23661;-58
2024/02/13 03:08:40;;;;;;;22.95;8.77;;;;;;;;;;5019488;28;20136;-57
2024/02/13 03:11:34;;;;;;;19.60;8.77;;;;;;;;;;5018196;28;20050;-63
2024/02/13 03:14:21;;;;;;;23.30;9.75;;;;;;;;;;5017823;28;20177;-60
2024/02/13 03:17:15;;;;;;;19.38;8.80;;;;;;;;;;5012397;28;20056;-61
2024/02/13 03:20:10;;;;;;;21.70;9.18;;;;;;;;;;5017776;28;20053;-61
2024/02/13 03:23:03;;;;;;;23.08;8.68;;;;;;;;;;5014870;28;20061;-55
2024/02/13 03:25:50;;;;;;;16.90;8.75;;;;;;;;;;5014875;28;20060;-55
2024/02/13 03:28:44;;;;;;;19.00;8.60;;;;;;;;;;5015614;28;20057;-58
2024/02/13 03:31:37;;;;;;;20.02;8.50;;;;;;;;;;5014687;28;20064;-59
2024/02/13 03:34:31;;;;;;;23.13;8.38;;;;;;;;;;5019321;28;20077;-60
2024/02/13 03:37:25;;;;;;;20.55;8.80;;;;;;;;;;5013877;28;20045;-54
2024/02/13 03:40:19;;;;;;;17.25;8.88;;;;;;;;;;5018769;28;20053;-48
2024/02/13 03:43:06;;;;;;;18.35;8.35;;;;;;;;;;5007980;28;20065;-49
2024/02/13 03:46:00;;;;;;;22.05;8.90;;;;;;;;;;5013871;28;20119;-56
2024/02/13 03:48:54;;;;;;;18.63;9.40;;;;;;;;;;5011797;28;20061;-56
2024/02/13 03:51:55;;;;;;;22.75;9.20;;;;;;;;;;5013468;28;20057;-57
2024/02/13 03:54:44;;;;;;;21.67;9.20;;;;;;;;;;5020155;28;20049;-56
2024/02/13 03:57:36;;;;;;;23.17;9.77;;;;;;;;;;5017775;28;20108;-55
2024/02/13 04:00:23;;;;;;;21.30;10.13;;;;;;;;;;5012471;28;20061;-55
2024/02/13 04:03:17;;;;;;;25.23;10.38;;;;;;;;;;5014020;28;20057;-57
2024/02/13 04:06:08;;;;;;;27.33;10.85;;;;;;;;;;5014586;28;20088;-64
2024/02/13 04:09:02;;;;;;;19.67;9.93;;;;;;;;;;5016148;28;20060;-63
2024/02/13 04:11:47;;;;;;;;;;;;;;;;;;5016442;28;20057;-64
2024/02/13 04:14:41;;;;;;;23.60;9.43;;;;;;;;;;5011418;28;20373;-64
2024/02/13 04:17:28;;;;;;;22.15;10.00;;;;;;;;;;5014643;28;20409;-63
2024/02/13 04:20:22;;;;;;;24.08;9.45;;;;;;;;;;5015850;28;20429;-64
2024/02/13 04:23:09;;;;;;;22.80;9.32;;;;;;;;;;5013225;28;20073;-64
2024/02/13 04:26:03;;;;;;;23.15;9.60;;;;;;;;;;5014151;28;20061;-63
2024/02/13 04:29:03;;;;;;;19.48;8.82;;;;;;;;;;5008677;28;20067;-63
2024/02/13 04:31:56;;;;;;;23.55;10.02;;;;;;;;;;5016098;28;20060;-56
2024/02/13 04:34:43;;;;;;;20.77;9.20;;;;;;;;;;5014868;28;20053;-53
2024/02/13 04:37:37;;;;;;;22.83;8.75;;;;;;;;;;5011970;28;20057;-53
2024/02/13 04:40:32;;;;;;;21.25;9.68;;;;;;;;;;5014600;28;20062;-52
2024/02/13 04:43:25;;;;;;;23.45;9.38;;;;;;;;;;5012502;28;20122;-56
2024/02/13 04:46:12;;;;;;;23.98;8.75;;;;;;;;;;5014696;28;20175;-61
2024/02/13 04:49:13;;;;;;;23.15;9.25;;;;;;;;;;5009856;28;20113;-61
2024/02/13 04:52:00;;;;;;;26.13;9.80;;;;;;;;;;5013259;28;20067;-61
2024/02/13 04:54:54;;;;;;;26.02;10.45;;;;;;;;;;5014158;28;20373;-61
2024/02/13 04:57:41;;;;;;;23.00;9.68;;;;;;;;;;5007183;28;20089;-61
2024/02/13 05:00:39;;;;;;;23.70;8.95;;;;;;;;;;5010587;28;20467;-60
2024/02/13 05:03:27;;;;;;;23.00;9.25;;;;;;;;;;5017007;28;20080;-53
2024/02/13 05:09:05;;;;;;;24.63;10.23;;;;;;;;;;5018227;28;20056;-53
2024/02/13 05:11:59;;;;;;;19.50;8.18;;;;;;;;;;5014836;28;20099;-57
2024/02/13 05:14:47;;;;;;;23.55;10.05;;;;;;;;;;5012155;28;20049;-57
2024/02/13 05:17:40;;;;;;;21.55;9.75;;;;;;;;;;5012804;28;20161;-55
2024/02/13 05:20:27;;;;;;;24.33;10.40;;;;;;;;;;5011609;28;20132;-53
2024/02/13 05:23:21;;;;;;;24.70;9.68;;;;;;;;;;5010855;28;20085;-56
2024/02/13 05:26:17;;;;;;;23.58;10.07;;;;;;;;;;5008843;28;20095;-56
2024/02/13 05:29:09;;;;;;;26.63;9.80;;;;;;;;;;5013914;28;20050;-56
2024/02/13 05:32:03;;;;;;;23.42;9.65;;;;;;;;;;5010541;28;20054;-54
2024/02/13 05:34:50;;;;;;;17.65;8.45;;;;;;;;;;5014238;28;20433;-58
2024/02/13 05:37:45;;;;;;;23.33;10.23;;;;;;;;;;5010094;28;20108;-60
2024/02/13 05:40:32;;;;;;;25.15;10.35;;;;;;;;;;5015042;28;20077;-60
2024/02/13 05:43:26;;;;;;;26.35;9.77;;;;;;;;;;5014515;28;20046;-60
2024/02/13 05:46:20;;;;;;;23.63;9.73;;;;;;;;;;5014193;28;20068;-58
2024/02/13 05:49:14;;;;;;;27.33;9.25;;;;;;;;;;5007446;28;20057;-59
2024/02/13 05:52:16;;;;;;;30.40;10.60;;;;;;;;;;5012756;28;20131;-59
2024/02/13 05:55:03;;;;;;;26.73;10.90;;;;;;;;;;5012794;28;20410;-58
2024/02/13 05:57:57;;;;;;;25.83;10.73;;;;;;;;;;5011249;28;20049;-45
2024/02/13 06:00:43;;;;;;;26.92;10.50;;;;;;;;;;5007955;28;20052;-61
2024/02/13 06:03:37;;;;;;;28.83;10.82;;;;;;;;;;5011491;28;20050;-60
2024/02/13 06:06:25;;;;;;;23.55;11.13;;;;;;;;;;5012866;28;20528;-62
2024/02/13 06:09:22;;;;;;;28.13;9.85;;;;;;;;;;5016928;28;20054;-61
2024/02/13 06:12:06;;;;;;;29.02;10.93;;;;;;;;;;5014331;28;20586;-61
2024/02/13 06:15:01;;;;;;;30.10;10.68;;;;;;;;;;5011018;28;20397;-61
2024/02/13 06:17:54;;;;;;;30.83;10.77;;;;;;;;;;5012098;28;20072;-56
2024/02/13 06:20:41;;;;;;;29.92;10.77;;;;;;;;;;5010446;28;20046;-60
2024/02/13 06:23:35;;;;;;;26.60;9.52;;;;;;;;;;5010792;28;20115;-59
2024/02/13 06:26:22;;;;;;;26.45;10.93;;;;;;;;;;5012413;28;20131;-60
2024/02/13 06:29:16;;;;;;;30.95;10.40;;;;;;;;;;5017912;28;20057;-59
2024/02/13 06:32:04;;;;;;;29.05;10.38;;;;;;;;;;5007913;28;20896;-59
2024/02/13 06:34:58;;;;;;;24.05;9.60;;;;;;;;;;5007273;28;20762;-62
2024/02/13 06:37:46;;;;;;;24.63;9.57;;;;;;;;;;5011045;28;20057;-55
2024/02/13 06:40:39;;;;;;;25.83;9.80;;;;;;;;;;5005526;28;20339;-57
2024/02/13 06:43:26;;;;;;;25.08;10.10;;;;;;;;;;5009530;28;20053;-59
2024/02/13 06:46:20;;;;;;;34.83;11.38;;;;;;;;;;5007458;28;20420;-58
2024/02/13 06:49:14;;;;;;;33.70;10.95;;;;;;;;;;5012670;28;20307;-58
2024/02/13 06:52:14;;;;;;;34.75;12.88;;;;;;;;;;5011613;28;20084;-62
2024/02/13 06:55:02;;;;;;;31.02;10.68;;;;;;;;;;5013912;28;20057;-62
2024/02/13 06:57:56;;;;;;;33.67;10.90;;;;;;;;;;5006961;28;20046;-61
2024/02/13 07:00:44;;;;;;;33.38;11.40;;;;;;;;;;5010688;28;20053;-61
2024/02/13 07:03:37;;;;;;;29.67;9.77;;;;;;;;;;5014900;28;20053;-59
2024/02/13 07:06:24;;;;;;;25.25;10.30;;;;;;;;;;5015995;28;20054;-61
2024/02/13 07:09:34;;;;;;;26.35;9.25;;;;;;;;;;5015610;28;20049;-67
2024/02/13 07:12:29;;;;;;;25.63;9.05;;;;;;;;;;5013073;28;20049;-66
2024/02/13 07:15:22;;;;;;;27.63;9.55;;;;;;;;;;5016113;28;20459;-66
2024/02/13 07:18:09;;;;;;;28.35;9.95;;;;;;;;;;5015280;28;20175;-66
2024/02/13 07:21:06;;;;;;;29.83;9.98;;;;;;;;;;5018284;28;20089;-66
2024/02/13 07:23:57;;;;;;;21.80;8.73;;;;;;;;;;5015515;28;20493;-65
2024/02/13 07:26:44;;;;;;;22.23;9.40;;;;;;;;;;5014373;28;20070;-66
2024/02/13 07:29:40;;;;;;;22.52;8.65;;;;;;;;;;5015898;28;20058;-59
2024/02/13 07:32:25;;;;;;;21.52;9.13;;;;;;;;;;5015376;28;20483;-63
2024/02/13 07:35:20;;;;;;;18.73;9.02;;;;;;;;;;5016577;28;20052;-63
2024/02/13 07:38:06;;;;;;;24.02;9.35;;;;;;;;;;5017025;28;20067;-64
2024/02/13 07:41:01;;;;;;;25.88;9.20;;;;;;;;;;5016435;28;20061;-64
2024/02/13 07:43:47;;;;;;;19.20;8.60;;;;;;;;;;5013196;28;20052;-64
2024/02/13 07:46:41;;;;;;;22.15;8.52;;;;;;;;;;5012489;28;20046;-50
2024/02/13 07:49:35;;;;;;;20.08;8.43;;;;;;;;;;5014816;28;20520;-49
2024/02/13 07:52:36;;;;;;;20.27;8.57;;;;;;;;;;5009745;28;20344;-47
2024/02/13 07:55:23;;;;;;;20.90;8.35;;;;;;;;;;5016802;28;20124;-53
2024/02/13 07:58:17;;;;;;;21.63;9.23;;;;;;;;;;5015552;28;20053;-46
2024/02/13 08:01:05;;;;;;;26.80;9.52;;;;;;;;;;5015734;28;20501;-46
2024/02/13 08:04:00;;;;;;;16.02;8.18;;;;;;;;;;5010875;28;20135;-47
2024/02/13 08:06:45;;;;;;;21.27;8.90;;;;;;;;;;5016189;28;20069;-49
2024/02/13 08:09:39;;;;;;;20.70;7.85;;;;;;;;;;5018821;28;20046;-57
2024/02/13 08:12:26;;;;;;;20.45;8.10;;;;;;;;;;5015976;28;20061;-56
2024/02/13 08:15:20;;;;;;;23.73;9.55;;;;;;;;;;5007543;28;23935;-54
2024/02/13 08:18:09;;;;;;;16.73;7.78;;;;;;;;;;5012234;28;20065;-57
2024/02/13 08:21:02;;;;;;;19.75;9.27;;;;;;;;;;5013794;28;20140;-56
2024/02/13 08:23:49;;;;;;;14.50;7.30;;;;;;;;;;5017173;28;20045;-61
2024/02/13 08:26:46;;;;;;;17.15;7.68;;;;;;;;;;5013294;28;20057;-61
2024/02/13 08:29:33;;;;;;;15.50;7.17;;;;;;;;;;5020350;28;20112;-61
2024/02/13 08:32:27;;;;;;;15.95;7.30;;;;;;;;;;5013746;28;20719;-62
2024/02/13 08:35:15;;;;;;;19.00;8.00;;;;;;;;;;5015308;28;20106;-61
2024/02/13 08:38:11;;;;;;;16.40;8.15;;;;;;;;;;5016407;28;20049;-61
2024/02/13 08:40:58;;;;;;;15.75;7.50;;;;;;;;;;5014933;28;20061;-61
2024/02/13 08:43:52;;;;;;;25.23;8.82;;;;;;;;;;5017032;28;20943;-60
2024/02/13 08:46:46;;;;;;;14.90;7.38;;;;;;;;;;5014665;28;20053;-57
2024/02/13 08:49:47;;;;;;;16.08;7.90;;;;;;;;;;5013559;28;20049;-56
2024/02/13 08:52:41;;;;;;;17.88;8.25;;;;;;;;;;5006842;28;20053;-58
2024/02/13 08:55:29;;;;;;;18.90;8.35;;;;;;;;;;5011371;28;20096;-56
2024/02/13 08:58:22;;;;;;;16.10;8.10;;;;;;;;;;5013220;28;20049;-58
2024/02/13 09:01:09;;;;;;;14.70;7.43;;;;;;;;;;5011742;28;20127;-54
2024/02/13 09:04:03;;;;;;;14.93;7.60;;;;;;;;;;5012504;28;20054;-51
2024/02/13 09:06:50;;;;;;;13.65;6.68;;;;;;;;;;5014196;28;20144;-53
2024/02/13 09:09:44;;;;;;;19.13;7.97;;;;;;;;;;5012746;28;20451;-46
2024/02/13 09:12:33;;;;;;;14.90;6.95;;;;;;;;;;5008895;28;20503;-45
2024/02/13 09:15:29;;;;;;;19.20;7.97;;;;;;;;;;5012548;28;20133;-48
2024/02/13 09:18:21;;;;;;;14.63;7.35;;;;;;;;;;5009183;28;20116;-57
2024/02/13 09:21:09;;;;;;;;;;;;;;;;;;5012791;28;20136;-60
2024/02/13 09:24:03;;;;;;;13.43;6.65;;;;;;;;;;5016609;28;19929;-60
2024/02/13 09:26:56;;;;;;;14.18;7.00;;;;;;;;;;5011727;28;20046;-59
2024/02/13 09:29:43;;;;;;;14.05;6.72;;;;;;;;;;5011817;28;20136;-61
2024/02/13 09:32:37;;;;;;;12.02;5.43;;;;;;;;;;5012689;28;20065;-60
2024/02/13 09:35:25;;;;;;;11.77;5.50;;;;;;;;;;5014657;28;20105;-61
2024/02/13 09:38:19;;;;;;;12.85;6.05;;;;;;;;;;5012260;28;20513;-51
2024/02/13 09:41:07;;;;;;;10.65;5.47;;;;;;;;;;5015855;28;20054;-60
2024/02/13 09:44:02;;;;;;;10.77;6.18;;;;;;;;;;5014911;28;20049;-61
2024/02/13 09:46:51;;;;;;;8.82;5.78;;;;;;;;;;5015632;28;20171;-61
2024/02/13 09:49:51;;;;;;;11.10;5.15;;;;;;;;;;5009790;28;20045;-60
2024/02/13 09:52:44;;;;;;;12.10;5.18;;;;;;;;;;5015457;28;20053;-60
2024/02/13 09:55:38;;;;;;;10.45;5.05;;;;;;;;;;5010209;28;20065;-56
2024/02/13 09:58:29;;;;;;;8.80;5.05;;;;;;;;;;5014372;28;20124;-58
2024/02/13 10:01:22;;;;;;;9.30;5.13;;;;;;;;;;5014187;28;20154;-60
2024/02/13 10:04:09;;;;;;;8.15;5.00;;;;;;;;;;5014182;28;20463;-61
2024/02/13 10:07:04;;;;;;;7.90;4.60;;;;;;;;;;5020751;28;20072;-59
2024/02/13 10:09:51;;;;;;;7.68;4.50;;;;;;;;;;5015762;28;20501;-58
2024/02/13 10:13:03;;;;;;;7.85;4.60;;;;;;;;;;5020395;28;20568;-66
2024/02/13 10:15:50;;;;;;;7.10;4.55;;;;;;;;;;5011304;28;20054;-55
2024/02/13 10:18:44;;;;;;;7.50;3.75;;;;;;;;;;5016202;28;20807;-67
2024/02/13 10:21:31;;;;;;;5.63;4.10;;;;;;;;;;5019342;28;20054;-66
2024/02/13 10:24:25;;;;;;;7.70;4.15;;;;;;;;;;5016792;28;20073;-67
2024/02/13 10:27:13;;;;;;;7.07;4.32;;;;;;;;;;5005340;28;20041;-68
2024/02/13 10:30:06;;;;;;;7.43;4.22;;;;;;;;;;5018855;28;20487;-66
2024/02/13 10:32:54;;;;;;;8.40;4.20;;;;;;;;;;5017618;28;20049;-49
2024/02/13 10:35:52;;;;;;;6.30;3.58;;;;;;;;;;5014418;28;20072;-52
2024/02/13 10:38:39;;;;;;;10.32;4.30;;;;;;;;;;5012871;28;20053;-51
2024/02/13 10:41:38;;;;;;;7.00;4.40;;;;;;;;;;5019747;28;20065;-49
2024/02/13 10:44:38;;;;;;;10.52;4.95;;;;;;;;;;5016270;28;20050;-49
2024/02/13 10:47:30;;;;;;;9.13;4.85;;;;;;;;;;5012330;28;21554;-50
2024/02/13 10:50:31;;;;;;;7.75;4.95;;;;;;;;;;5013894;28;20053;-65
2024/02/13 10:53:25;;;;;;;10.35;5.30;;;;;;;;;;5010071;28;20053;-59
2024/02/13 10:56:21;;;;;;;10.50;4.78;;;;;;;;;;5010049;28;20682;-60
2024/02/13 10:59:14;;;;;;;7.45;4.72;;;;;;;;;;5015283;28;20087;-60
2024/02/13 11:02:08;;;;;;;7.28;4.70;;;;;;;;;;5014245;28;20050;-61
2024/02/13 11:04:56;;;;;;;8.88;5.15;;;;;;;;;;5016593;28;20428;-61
2024/02/13 11:07:50;;;;;;;9.07;4.90;;;;;;;;;;5015850;28;20460;-59
2024/02/13 11:10:43;;;;;;;9.52;5.10;;;;;;;;;;5017189;28;20050;-61
2024/02/13 11:13:37;;;;;;;9.68;5.00;;;;;;;;;;5015251;28;20147;-52
2024/02/13 11:16:24;;;;;;;10.98;6.00;;;;;;;;;;5014843;28;20049;-53
2024/02/13 11:19:20;;;;;;;9.88;5.38;;;;;;;;;;5016077;28;20065;-52
2024/02/13 11:22:14;;;;;;;6.97;4.22;;;;;;;;;;5015251;28;20061;-53
2024/02/13 11:25:11;;;;;;;7.38;4.53;;;;;;;;;;5011360;28;20131;-53
2024/02/13 11:28:05;;;;;;;5.68;3.88;;;;;;;;;;5016040;28;20096;-66
2024/02/13 11:30:53;;;;;;;7.63;4.55;;;;;;;;;;5014596;28;20045;-62
2024/02/13 11:34:01;;;;;;;7.13;4.57;;;;;;;;;;5016054;28;20057;-59
2024/02/13 11:36:55;;;;;;;9.60;4.47;;;;;;;;;;5017036;28;20080;-61
2024/02/13 11:39:42;;;;;;;6.43;4.28;;;;;;;;;;5016675;28;20045;-61
2024/02/13 11:42:36;;;;;;;7.45;4.18;;;;;;;;;;5016990;28;20108;-62
2024/02/13 11:45:31;;;;;;;8.40;4.55;;;;;;;;;;5013888;28;21136;-61
2024/02/13 11:48:25;;;;;;;6.18;4.10;;;;;;;;;;5012649;28;20142;-58
2024/02/13 11:51:24;;;;;;;9.73;4.40;;;;;;;;;;5015050;28;20119;-59
2024/02/13 11:54:11;;;;;;;6.47;3.83;;;;;;;;;;5016492;28;20104;-60
2024/02/13 11:57:07;;;;;;;7.47;4.05;;;;;;;;;;5016053;28;20058;-60
2024/02/13 12:00:01;;;;;;;6.45;4.25;;;;;;;;;;5016715;28;20053;-60
2024/02/13 12:02:53;;;;;;;9.60;4.00;;;;;;;;;;5011961;28;20222;-59
2024/02/13 12:05:41;;;;;;;9.93;4.63;;;;;;;;;;5014747;28;20061;-47
2024/02/13 12:08:28;;;;;;;7.35;4.40;;;;;;;;;;5012076;28;20045;-62
2024/02/13 12:11:22;;;;;;;9.77;5.22;;;;;;;;;;5015511;28;20050;-61
2024/02/13 12:14:13;;;;;;;10.63;4.85;;;;;;;;;;5000787;28;20485;-58
2024/02/13 12:17:06;;;;;;;9.48;4.70;;;;;;;;;;5013011;28;20656;-60
2024/02/13 12:19:55;;;;;;;7.85;5.00;;;;;;;;;;5012468;28;20757;-59
2024/02/13 12:22:47;;;;;;;9.77;5.30;;;;;;;;;;5009160;28;20050;-63
2024/02/13 12:25:35;;;;;;;8.88;5.50;;;;;;;;;;5011495;28;20053;-61
2024/02/13 12:28:28;;;;;;;10.77;6.22;;;;;;;;;;5015751;28;20199;-60
2024/02/13 12:31:21;;;;;;;13.73;6.22;;;;;;;;;;5013806;28;20057;-60
2024/02/13 12:34:08;;;;;;;12.55;6.82;;;;;;;;;;5012387;28;20111;-60
2024/02/13 12:37:04;;;;;;;15.18;7.53;;;;;;;;;;5015072;28;20118;-60
2024/02/13 12:40:14;;;;;;;13.73;6.72;;;;;;;;;;5014951;28;20124;-64
2024/02/13 12:42:54;;;;;;;13.52;7.25;;;;;;;;;;5005325;28;20495;-46
2024/02/13 12:45:47;;;;;;;15.15;7.60;;;;;;;;;;5015682;28;20057;-61
2024/02/13 12:48:36;;;;;;;15.73;7.78;;;;;;;;;;5014661;28;20394;-61
2024/02/13 12:51:36;;;;;;;17.10;8.45;;;;;;;;;;5013818;28;20296;-60
2024/02/13 12:54:24;;;;;;;16.23;7.65;;;;;;;;;;5012904;28;20567;-61
2024/02/13 12:57:18;;;;;;;15.60;7.70;;;;;;;;;;5009309;28;20841;-61
2024/02/13 13:00:14;;;;;;;16.33;7.82;;;;;;;;;;5007349;28;20057;-52
2024/02/13 13:02:59;;;;;;;12.82;7.25;;;;;;;;;;5015959;28;20076;-58
2024/02/13 13:05:49;;;;;;;8.43;4.78;;;;;;;;;;5014831;28;20053;-60
2024/02/13 13:08:42;;;;;;;18.08;7.50;;;;;;;;;;5014237;28;20059;-60
2024/02/13 13:11:32;;;;;;;17.42;7.43;;;;;;;;;;5006365;28;20060;-59
2024/02/13 13:14:27;;;;;;;12.07;6.47;;;;;;;;;;5015339;28;20490;-57
2024/02/13 13:17:14;;;;;;;16.35;9.00;;;;;;;;;;5013311;28;20132;-59
2024/02/13 13:20:17;;;;;;;17.83;8.52;;;;;;;;;;5009950;28;20137;-50
2024/02/13 13:22:59;;;;;;;18.95;9.13;;;;;;;;;;5012361;28;20162;-51
2024/02/13 13:25:52;;;;;;;20.40;9.32;;;;;;;;;;5013142;28;20042;-51
2024/02/13 13:28:39;;;;;;;17.75;7.65;;;;;;;;;;5015243;28;20500;-51
2024/02/13 13:31:34;;;;;;;17.17;7.85;;;;;;;;;;5014338;28;20057;-52
2024/02/13 13:34:23;;;;;;;18.03;8.33;;;;;;;;;;5017500;28;20054;-51
2024/02/13 13:37:15;;;;;;;18.35;8.30;;;;;;;;;;5013677;28;20822;-64
2024/02/13 13:40:11;;;;;;;17.08;7.75;;;;;;;;;;5016111;28;20065;-62
2024/02/13 13:42:58;;;;;;;19.05;8.20;;;;;;;;;;5016956;28;20057;-62
2024/02/13 13:45:52;;;;;;;18.38;8.00;;;;;;;;;;5009526;28;20128;-62
2024/02/13 13:48:45;;;;;;;16.75;8.35;;;;;;;;;;5015266;28;20405;-62
2024/02/13 13:51:40;;;;;;;19.90;9.63;;;;;;;;;;5017403;28;20065;-63
2024/02/13 13:54:34;;;;;;;20.27;9.00;;;;;;;;;;5014546;28;20275;-48
2024/02/13 13:57:21;;;;;;;20.88;9.40;;;;;;;;;;5017953;28;20516;-59
2024/02/13 14:00:20;;;;;;;19.55;9.32;;;;;;;;;;5011665;28;20057;-62
2024/02/13 14:03:03;;;;;;;20.73;10.65;;;;;;;;;;5018397;28;20056;-60
2024/02/13 14:05:59;;;;;;;16.40;9.57;;;;;;;;;;5018224;28;20103;-57
2024/02/13 14:08:45;;;;;;;18.88;8.77;;;;;;;;;;5013346;28;20053;-58
2024/02/13 14:11:45;;;;;;;17.13;8.52;;;;;;;;;;5012962;28;20060;-61
2024/02/13 14:14:32;;;;;;;13.68;8.23;;;;;;;;;;5010610;28;20080;-62
2024/02/13 14:17:33;;;;;;;19.80;9.85;;;;;;;;;;5020046;28;20050;-51
2024/02/13 14:20:20;;;;;;;19.10;8.93;;;;;;;;;;5013531;28;20046;-54
2024/02/13 14:23:14;;;;;;;16.45;9.45;;;;;;;;;;5017039;28;20060;-54
2024/02/13 14:26:08;;;;;;;18.77;9.68;;;;;;;;;;5012657;28;20152;-56
2024/02/13 14:29:03;;;;;;;22.38;10.38;;;;;;;;;;5013066;28;20057;-51
2024/02/13 14:31:56;;;;;;;17.70;9.02;;;;;;;;;;5017707;28;20049;-63
2024/02/13 14:34:44;;;;;;;16.42;9.02;;;;;;;;;;5012795;28;20519;-53
2024/02/13 14:37:37;;;;;;;18.42;8.73;;;;;;;;;;5014639;28;20053;-55
2024/02/13 14:40:25;;;;;;;16.73;8.93;;;;;;;;;;5015667;28;20046;-54
2024/02/13 14:43:18;;;;;;;16.67;9.00;;;;;;;;;;5017756;28;20144;-52
2024/02/13 14:46:06;;;;;;;18.02;9.68;;;;;;;;;;5013894;28;20139;-56
2024/02/13 15:55:30;;;;;;;20.80;9.02;;;;;;;;;;4982238;28;20524;-63
2024/02/13 15:58:26;;;;;;;17.27;7.40;;;;;;;;;;5009996;28;20119;-60
2024/02/13 16:01:18;;;;;;;23.20;8.65;;;;;;;;;;5005974;28;20077;-57
2024/02/13 16:04:05;;;;;;;24.95;9.43;;;;;;;;;;5004660;28;20064;-50
2024/02/13 16:06:59;;;;;;;20.10;8.02;;;;;;;;;;5007959;28;20146;-48
2024/02/13 16:09:47;;;;;;;18.70;7.32;;;;;;;;;;5013256;28;20045;-46
2024/02/13 16:12:44;;;;;;;12.85;6.50;;;;;;;;;;5011800;28;20053;-46
2024/02/13 16:15:38;;;;;;;17.63;7.00;;;;;;;;;;5011647;28;20425;-50
2024/02/13 16:18:25;;;;;;;25.05;7.65;;;;;;;;;;5009700;28;20706;-48
2024/02/13 16:21:19;;;;;;;26.35;7.97;;;;;;;;;;5005470;28;20100;-68
2024/02/13 16:24:07;;;;;;;25.02;7.65;;;;;;;;;;5011098;28;20092;-60
2024/02/13 16:27:00;;;;;;;24.02;7.40;;;;;;;;;;5010825;28;20053;-60
2024/02/13 16:29:47;;;;;;;24.63;8.00;;;;;;;;;;5005115;28;20111;-61
2024/02/13 16:32:41;;;;;;;24.77;8.23;;;;;;;;;;5019082;28;20048;-61
2024/02/13 16:35:28;;;;;;;39.58;9.68;;;;;;;;;;5015818;28;20053;-61
2024/02/13 16:38:22;;;;;;;30.10;9.30;;;;;;;;;;5017085;28;20050;-60
2024/02/13 16:41:16;;;;;;;46.25;9.30;;;;;;;;;;5013841;28;20140;-66
2024/02/13 16:44:04;;;;;;;35.05;8.80;;;;;;;;;;5013130;28;20053;-60
2024/02/13 16:46:59;;;;;;;33.58;9.02;;;;;;;;;;5011798;28;20762;-59
2024/02/13 16:49:44;;;;;;;29.35;9.40;;;;;;;;;;5011838;28;20144;-60
2024/02/13 16:53:01;;;;;;;41.85;11.20;;;;;;;;;;5011578;28;20131;-57
2024/02/13 16:56:02;;;;;;;60.17;11.88;;;;;;;;;;5013740;28;20169;-59
2024/02/13 16:58:55;;;;;;;30.42;10.30;;;;;;;;;;5011212;28;20127;-66
2024/02/13 17:01:42;;;;;;;29.38;10.88;;;;;;;;;;5009186;28;21700;-61
2024/02/13 17:04:36;;;;;;;35.28;9.30;;;;;;;;;;5012533;28;20440;-61
2024/02/13 17:07:24;;;;;;;45.97;10.73;;;;;;;;;;5012115;28;20052;-61
2024/02/13 17:10:17;;;;;;;53.92;12.57;;;;;;;;;;5011155;28;20231;-61
2024/02/13 17:13:12;;;;;;;49.30;11.48;;;;;;;;;;5010973;28;20503;-61
2024/02/13 17:15:59;;;;;;;54.38;12.80;;;;;;;;;;5013470;28;20057;-57
2024/02/13 17:18:54;;;;;;;54.95;13.50;;;;;;;;;;5012445;28;20053;-67
2024/02/13 17:21:42;;;;;;;64.75;15.32;;;;;;;;;;5012486;28;20075;-67
2024/02/13 17:24:39;;;;;;;63.28;13.68;;;;;;;;;;5012678;28;20060;-66
2024/02/13 17:27:26;;;;;;;113.70;18.58;;;;;;;;;;5004710;28;20155;-66
2024/02/13 17:30:20;;;;;;;198.00;23.83;;;;;;;;;;5007831;28;20064;-66
2024/02/13 17:33:07;;;;;;;182.77;25.70;;;;;;;;;;5015441;28;20064;-66
2024/02/13 17:36:03;;;;;;;155.82;23.48;;;;;;;;;;5012541;28;20455;-55
2024/02/13 17:38:49;;;;;;;138.40;22.25;;;;;;;;;;5011044;28;20061;-61
2024/02/13 17:41:43;;;;;;;84.90;19.50;;;;;;;;;;5001697;28;20049;-61
2024/02/13 17:44:10;;;;;;;;;;;;;;;;;;4999327;28;20054;-61
2024/02/13 17:46:38;;;;;;;161.88;23.98;;;;;;;;;;5014593;28;19929;-62
2024/02/13 17:49:11;;;;;;;136.38;23.48;;;;;;;;;;5006596;28;20120;-61
2024/02/13 17:51:58;;;;;;;123.22;21.55;;;;;;;;;;5014353;28;20061;-61
2024/02/13 17:54:52;;;;;;;180.88;24.20;;;;;;;;;;5012335;28;20104;-60
2024/02/13 17:57:53;;;;;;;123.45;23.10;;;;;;;;;;4989046;28;20061;-57
2024/02/13 18:00:42;;;;;;;135.93;23.70;;;;;;;;;;4984588;28;20058;-57
2024/02/13 18:03:35;;;;;;;143.43;22.75;;;;;;;;;;4990644;28;20046;-59
2024/02/13 18:06:22;;;;;;;150.60;24.75;;;;;;;;;;4993944;28;20390;-57